JIA7086 KCLT-KILM
Flight info
| Callsign | JIA7086 |
|---|---|
| Flight time | 0h 38m |
| Altitude | 17000 |
| Route | LILLS3 LILLS V296 FAY |
| Aircraft | E75L/M-SDE3GILORVW/S |
Departure
| Time | 2026-05-03 20:52 |
|---|---|
| Airport | Charlotte Douglas International Airport (KCLT) |
Arrival
| Time | 2026-05-03 21:30 |
|---|---|
| Airport | Wilmington International Airport (KILM) |
| Time | Latitude | Longitude | Altitude | Speed | Heading |
|---|---|---|---|---|---|
| 2026-05-03 20:24 | 35.21985 | -80.94448 | 730 ft | 0 kts | 296° |
| 2026-05-03 20:43 | 35.21984 | -80.94447 | 730 ft | 2 kts | 296° |
| 2026-05-03 20:43 | 35.21973 | -80.94419 | 729 ft | 4 kts | 290° |
| 2026-05-03 20:43 | 35.21971 | -80.94390 | 729 ft | 4 kts | 235° |
| 2026-05-03 20:44 | 35.21987 | -80.94387 | 728 ft | 2 kts | 176° |
| 2026-05-03 20:44 | 35.21989 | -80.94387 | 728 ft | 0 kts | 176° |
| 2026-05-03 20:45 | 35.21970 | -80.94388 | 729 ft | 6 kts | 184° |
| 2026-05-03 20:46 | 35.21909 | -80.94390 | 730 ft | 11 kts | 179° |
| 2026-05-03 20:46 | 35.21828 | -80.94384 | 730 ft | 12 kts | 176° |
| 2026-05-03 20:46 | 35.21748 | -80.94376 | 730 ft | 5 kts | 175° |
| 2026-05-03 20:46 | 35.21727 | -80.94375 | 730 ft | 0 kts | 176° |
| 2026-05-03 20:47 | 35.21722 | -80.94374 | 730 ft | 3 kts | 175° |
| 2026-05-03 20:47 | 35.21686 | -80.94351 | 730 ft | 8 kts | 121° |
| 2026-05-03 20:47 | 35.21671 | -80.94272 | 730 ft | 11 kts | 98° |
| 2026-05-03 20:47 | 35.21685 | -80.94176 | 730 ft | 13 kts | 54° |
| 2026-05-03 20:48 | 35.21735 | -80.94081 | 730 ft | 14 kts | 83° |
| 2026-05-03 20:48 | 35.21689 | -80.93974 | 730 ft | 15 kts | 136° |
| 2026-05-03 20:48 | 35.21604 | -80.93885 | 731 ft | 19 kts | 139° |
| 2026-05-03 20:48 | 35.21489 | -80.93763 | 730 ft | 24 kts | 139° |
| 2026-05-03 20:49 | 35.21344 | -80.93658 | 731 ft | 25 kts | 173° |
| 2026-05-03 20:49 | 35.21171 | -80.93642 | 731 ft | 25 kts | 175° |
| 2026-05-03 20:49 | 35.20996 | -80.93626 | 731 ft | 25 kts | 176° |
| 2026-05-03 20:49 | 35.20821 | -80.93610 | 731 ft | 25 kts | 176° |
| 2026-05-03 20:50 | 35.20645 | -80.93595 | 731 ft | 25 kts | 176° |
| 2026-05-03 20:50 | 35.20467 | -80.93581 | 731 ft | 26 kts | 177° |
| 2026-05-03 20:50 | 35.20293 | -80.93566 | 731 ft | 21 kts | 175° |
| 2026-05-03 20:50 | 35.20158 | -80.93549 | 730 ft | 18 kts | 168° |
| 2026-05-03 20:51 | 35.20113 | -80.93440 | 731 ft | 16 kts | 58° |
| 2026-05-03 20:51 | 35.20185 | -80.93422 | 732 ft | 21 kts | 356° |
| 2026-05-03 20:51 | 35.20598 | -80.93458 | 733 ft | 98 kts | 355° |
| 2026-05-03 20:51 | 35.21519 | -80.93558 | 745 ft | 163 kts | 352° |
| 2026-05-03 20:52 | 35.22705 | -80.93697 | 1449 ft | 174 kts | 351° |
| 2026-05-03 20:52 | 35.23956 | -80.93723 | 2375 ft | 191 kts | 4° |
| 2026-05-03 20:52 | 35.25281 | -80.93507 | 3447 ft | 194 kts | 4° |
| 2026-05-03 20:52 | 35.26676 | -80.93209 | 4427 ft | 207 kts | 11° |
| 2026-05-03 20:53 | 35.28109 | -80.92750 | 5101 ft | 235 kts | 12° |
| 2026-05-03 20:53 | 35.29719 | -80.91703 | 4378 ft | 288 kts | 41° |
| 2026-05-03 20:53 | 35.30882 | -80.89549 | 3884 ft | 315 kts | 71° |
| 2026-05-03 20:53 | 35.31082 | -80.86938 | 4319 ft | 302 kts | 100° |
| 2026-05-03 20:54 | 35.30383 | -80.84617 | 5228 ft | 280 kts | 118° |
| 2026-05-03 20:54 | 35.28719 | -80.80647 | 6868 ft | 244 kts | 117° |
| 2026-05-03 20:54 | 35.28007 | -80.78852 | 7623 ft | 225 kts | 117° |
| 2026-05-03 20:55 | 35.27340 | -80.77165 | 8031 ft | 225 kts | 117° |
| 2026-05-03 20:55 | 35.26658 | -80.75443 | 8353 ft | 224 kts | 117° |
| 2026-05-03 20:55 | 35.25958 | -80.73689 | 8923 ft | 235 kts | 117° |
| 2026-05-03 20:55 | 35.25223 | -80.71836 | 9881 ft | 247 kts | 116° |
| 2026-05-03 20:56 | 35.24463 | -80.69907 | 10746 ft | 258 kts | 116° |
| 2026-05-03 20:56 | 35.23660 | -80.67884 | 11599 ft | 270 kts | 116° |
| 2026-05-03 20:56 | 35.22807 | -80.65741 | 12342 ft | 288 kts | 117° |
| 2026-05-03 20:56 | 35.21909 | -80.63487 | 13110 ft | 304 kts | 117° |
| 2026-05-03 20:57 | 35.20954 | -80.61093 | 13885 ft | 321 kts | 117° |
| 2026-05-03 20:57 | 35.19951 | -80.58577 | 14551 ft | 337 kts | 117° |
| 2026-05-03 20:57 | 35.18900 | -80.55943 | 15251 ft | 352 kts | 117° |
| 2026-05-03 20:57 | 35.17804 | -80.53197 | 15963 ft | 367 kts | 117° |
| 2026-05-03 20:58 | 35.16661 | -80.50339 | 16672 ft | 382 kts | 117° |
| 2026-05-03 20:58 | 35.15453 | -80.47321 | 16901 ft | 411 kts | 117° |
| 2026-05-03 20:58 | 35.14183 | -80.44148 | 16988 ft | 415 kts | 117° |
| 2026-05-03 20:58 | 35.12917 | -80.40984 | 17014 ft | 416 kts | 117° |
| 2026-05-03 20:59 | 35.11639 | -80.37802 | 17011 ft | 418 kts | 117° |
| 2026-05-03 20:59 | 35.10358 | -80.34611 | 17007 ft | 419 kts | 117° |
| 2026-05-03 20:59 | 35.09072 | -80.31412 | 17005 ft | 420 kts | 117° |
| 2026-05-03 20:59 | 35.07783 | -80.28206 | 16998 ft | 421 kts | 117° |
| 2026-05-03 21:00 | 35.06489 | -80.24996 | 16979 ft | 422 kts | 117° |
| 2026-05-03 21:00 | 35.06068 | -80.23948 | 16993 ft | 422 kts | 117° |
| 2026-05-03 21:00 | 35.03911 | -80.18601 | 16993 ft | 423 kts | 117° |
| 2026-05-03 21:00 | 35.02610 | -80.15382 | 16982 ft | 423 kts | 117° |
| 2026-05-03 21:01 | 35.01305 | -80.12154 | 16987 ft | 424 kts | 117° |
| 2026-05-03 21:01 | 35.00004 | -80.08937 | 16983 ft | 422 kts | 117° |
| 2026-05-03 21:01 | 34.98703 | -80.05727 | 16969 ft | 420 kts | 117° |
| 2026-05-03 21:01 | 34.97414 | -80.02546 | 16985 ft | 417 kts | 117° |
| 2026-05-03 21:02 | 34.96129 | -79.99380 | 16985 ft | 415 kts | 117° |
| 2026-05-03 21:02 | 34.94847 | -79.96225 | 16977 ft | 414 kts | 118° |
| 2026-05-03 21:02 | 34.93808 | -79.92967 | 16965 ft | 413 kts | 102° |
| 2026-05-03 21:02 | 34.93650 | -79.89505 | 16971 ft | 409 kts | 85° |
| 2026-05-03 21:03 | 34.93817 | -79.87218 | 16988 ft | 408 kts | 83° |
| 2026-05-03 21:03 | 34.94020 | -79.83776 | 16995 ft | 407 kts | 85° |
| 2026-05-03 21:03 | 34.94198 | -79.80343 | 16982 ft | 407 kts | 85° |
| 2026-05-03 21:03 | 34.94373 | -79.76898 | 16975 ft | 406 kts | 85° |
| 2026-05-03 21:04 | 34.94544 | -79.73473 | 16983 ft | 405 kts | 85° |
| 2026-05-03 21:04 | 34.94716 | -79.70031 | 16980 ft | 405 kts | 85° |
| 2026-05-03 21:04 | 34.94885 | -79.66610 | 16979 ft | 405 kts | 85° |
| 2026-05-03 21:04 | 34.95055 | -79.63176 | 16978 ft | 405 kts | 85° |
| 2026-05-03 21:05 | 34.95224 | -79.59749 | 16951 ft | 404 kts | 85° |
| 2026-05-03 21:05 | 34.95389 | -79.56374 | 16943 ft | 404 kts | 85° |
| 2026-05-03 21:05 | 34.95555 | -79.52959 | 16935 ft | 404 kts | 85° |
| 2026-05-03 21:05 | 34.95721 | -79.49531 | 16940 ft | 404 kts | 85° |
| 2026-05-03 21:06 | 34.95885 | -79.46116 | 16949 ft | 403 kts | 85° |
| 2026-05-03 21:06 | 34.96049 | -79.42705 | 16943 ft | 404 kts | 85° |
| 2026-05-03 21:06 | 34.96210 | -79.39292 | 16936 ft | 404 kts | 85° |
| 2026-05-03 21:06 | 34.96372 | -79.35871 | 16954 ft | 403 kts | 85° |
| 2026-05-03 21:07 | 34.96533 | -79.32458 | 16956 ft | 403 kts | 85° |
| 2026-05-03 21:07 | 34.96692 | -79.29048 | 16948 ft | 403 kts | 85° |
| 2026-05-03 21:07 | 34.96850 | -79.25636 | 16980 ft | 403 kts | 85° |
| 2026-05-03 21:07 | 34.97008 | -79.22220 | 16987 ft | 403 kts | 85° |
| 2026-05-03 21:08 | 34.97164 | -79.18808 | 16981 ft | 403 kts | 85° |
| 2026-05-03 21:08 | 34.97320 | -79.15395 | 16966 ft | 403 kts | 85° |
| 2026-05-03 21:08 | 34.97475 | -79.11975 | 16980 ft | 403 kts | 85° |
| 2026-05-03 21:08 | 34.97628 | -79.08568 | 16972 ft | 403 kts | 85° |
| 2026-05-03 21:09 | 34.97782 | -79.05146 | 16959 ft | 404 kts | 85° |
| 2026-05-03 21:09 | 34.97934 | -79.01729 | 16966 ft | 403 kts | 85° |
| 2026-05-03 21:09 | 34.98084 | -78.98313 | 16965 ft | 404 kts | 85° |
| 2026-05-03 21:09 | 34.98234 | -78.94898 | 16955 ft | 404 kts | 85° |
| 2026-05-03 21:10 | 34.98412 | -78.91469 | 16957 ft | 403 kts | 81° |
| 2026-05-03 21:10 | 34.99223 | -78.88241 | 16957 ft | 396 kts | 59° |
| 2026-05-03 21:10 | 35.00857 | -78.85615 | 16971 ft | 385 kts | 37° |
| 2026-05-03 21:10 | 35.02959 | -78.83633 | 15609 ft | 402 kts | 32° |
| 2026-05-03 21:11 | 35.04957 | -78.80997 | 13290 ft | 433 kts | 59° |
| 2026-05-03 21:11 | 35.06052 | -78.77740 | 13419 ft | 402 kts | 68° |
| 2026-05-03 21:11 | 35.06922 | -78.74597 | 13341 ft | 381 kts | 69° |
| 2026-05-03 21:11 | 35.07730 | -78.71599 | 13302 ft | 361 kts | 69° |
| 2026-05-03 21:12 | 35.08424 | -78.68733 | 13287 ft | 344 kts | 78° |
| 2026-05-03 21:12 | 35.08383 | -78.65876 | 13278 ft | 329 kts | 101° |
| 2026-05-03 21:12 | 35.07567 | -78.63373 | 13273 ft | 310 kts | 128° |
| 2026-05-03 21:12 | 35.06197 | -78.61452 | 13233 ft | 294 kts | 138° |
| 2026-05-03 21:13 | 35.04714 | -78.59755 | 13111 ft | 291 kts | 146° |
| 2026-05-03 21:13 | 35.03115 | -78.58300 | 13016 ft | 290 kts | 149° |
| 2026-05-03 21:13 | 35.01449 | -78.56902 | 12924 ft | 290 kts | 150° |
| 2026-05-03 21:13 | 34.99770 | -78.55530 | 12835 ft | 291 kts | 151° |
| 2026-05-03 21:14 | 34.98086 | -78.54166 | 12753 ft | 291 kts | 151° |
| 2026-05-03 21:14 | 34.96398 | -78.52807 | 12656 ft | 291 kts | 151° |
| 2026-05-03 21:14 | 34.94698 | -78.51442 | 12562 ft | 292 kts | 151° |
| 2026-05-03 21:14 | 34.92999 | -78.50079 | 12473 ft | 292 kts | 151° |
| 2026-05-03 21:15 | 34.91302 | -78.48720 | 12375 ft | 292 kts | 151° |
| 2026-05-03 21:15 | 34.89594 | -78.47358 | 12235 ft | 296 kts | 151° |
| 2026-05-03 21:15 | 34.87834 | -78.45963 | 12087 ft | 307 kts | 151° |
| 2026-05-03 21:15 | 34.86012 | -78.44529 | 11962 ft | 316 kts | 151° |
| 2026-05-03 21:16 | 34.84139 | -78.43065 | 11829 ft | 324 kts | 151° |
| 2026-05-03 21:16 | 34.82209 | -78.41567 | 11700 ft | 332 kts | 151° |
| 2026-05-03 21:16 | 34.80241 | -78.40048 | 11563 ft | 338 kts | 151° |
| 2026-05-03 21:16 | 34.78247 | -78.38517 | 11410 ft | 337 kts | 151° |
| 2026-05-03 21:17 | 34.76276 | -78.37004 | 11237 ft | 334 kts | 151° |
| 2026-05-03 21:17 | 34.74976 | -78.36006 | 11121 ft | 331 kts | 151° |
| 2026-05-03 21:17 | 34.72390 | -78.34020 | 10886 ft | 326 kts | 151° |
| 2026-05-03 21:17 | 34.70480 | -78.32558 | 10722 ft | 324 kts | 151° |
| 2026-05-03 21:18 | 34.68607 | -78.31127 | 10548 ft | 321 kts | 151° |
| 2026-05-03 21:18 | 34.66718 | -78.29689 | 10383 ft | 319 kts | 151° |
| 2026-05-03 21:18 | 34.64837 | -78.28259 | 10205 ft | 317 kts | 151° |
| 2026-05-03 21:18 | 34.62971 | -78.26843 | 10049 ft | 316 kts | 151° |
| 2026-05-03 21:19 | 34.61108 | -78.25435 | 9866 ft | 315 kts | 151° |
| 2026-05-03 21:19 | 34.59251 | -78.24037 | 9678 ft | 313 kts | 151° |
| 2026-05-03 21:19 | 34.57402 | -78.22647 | 9505 ft | 312 kts | 151° |
| 2026-05-03 21:19 | 34.55562 | -78.21270 | 9301 ft | 310 kts | 151° |
| 2026-05-03 21:20 | 34.53735 | -78.19906 | 9122 ft | 307 kts | 151° |
| 2026-05-03 21:20 | 34.51925 | -78.18558 | 8897 ft | 303 kts | 151° |
| 2026-05-03 21:20 | 34.50132 | -78.17229 | 8631 ft | 301 kts | 151° |
| 2026-05-03 21:20 | 34.48352 | -78.15918 | 8381 ft | 299 kts | 151° |
| 2026-05-03 21:21 | 34.46577 | -78.14614 | 8118 ft | 297 kts | 151° |
| 2026-05-03 21:21 | 34.44818 | -78.13328 | 7869 ft | 295 kts | 151° |
| 2026-05-03 21:21 | 34.43061 | -78.12047 | 7620 ft | 294 kts | 151° |
| 2026-05-03 21:21 | 34.41313 | -78.10781 | 7364 ft | 292 kts | 151° |
| 2026-05-03 21:22 | 34.39571 | -78.09524 | 7115 ft | 291 kts | 151° |
| 2026-05-03 21:22 | 34.37831 | -78.08275 | 6865 ft | 290 kts | 151° |
| 2026-05-03 21:22 | 34.36099 | -78.07038 | 6610 ft | 289 kts | 151° |
| 2026-05-03 21:22 | 34.34390 | -78.05824 | 6352 ft | 288 kts | 151° |
| 2026-05-03 21:23 | 34.32663 | -78.04601 | 6094 ft | 287 kts | 151° |
| 2026-05-03 21:23 | 34.30942 | -78.03385 | 5884 ft | 285 kts | 151° |
| 2026-05-03 21:23 | 34.29226 | -78.02179 | 5632 ft | 284 kts | 151° |
| 2026-05-03 21:23 | 34.27522 | -78.00986 | 5388 ft | 282 kts | 151° |
| 2026-05-03 21:24 | 34.25832 | -77.99804 | 5176 ft | 279 kts | 151° |
| 2026-05-03 21:24 | 34.24153 | -77.98631 | 4941 ft | 278 kts | 151° |
| 2026-05-03 21:24 | 34.22481 | -77.97461 | 4739 ft | 276 kts | 151° |
| 2026-05-03 21:24 | 34.20841 | -77.96318 | 4534 ft | 275 kts | 152° |
| 2026-05-03 21:25 | 34.19181 | -77.95162 | 4287 ft | 274 kts | 151° |
| 2026-05-03 21:25 | 34.17530 | -77.94016 | 4062 ft | 273 kts | 151° |
| 2026-05-03 21:25 | 34.15885 | -77.92871 | 3852 ft | 272 kts | 152° |
| 2026-05-03 21:25 | 34.14251 | -77.91742 | 3642 ft | 268 kts | 151° |
| 2026-05-03 21:26 | 34.12813 | -77.90357 | 3086 ft | 273 kts | 130° |
| 2026-05-03 21:26 | 34.12169 | -77.88147 | 2528 ft | 277 kts | 86° |
| 2026-05-03 21:26 | 34.12818 | -77.86146 | 2228 ft | 247 kts | 43° |
| 2026-05-03 21:26 | 34.14205 | -77.85273 | 2124 ft | 216 kts | 5° |
| 2026-05-03 21:27 | 34.15600 | -77.85356 | 2103 ft | 189 kts | 347° |
| 2026-05-03 21:27 | 34.16829 | -77.85786 | 1897 ft | 182 kts | 337° |
| 2026-05-03 21:27 | 34.17951 | -77.86303 | 1887 ft | 167 kts | 344° |
| 2026-05-03 21:27 | 34.19032 | -77.86787 | 1539 ft | 171 kts | 333° |
| 2026-05-03 21:28 | 34.20156 | -77.87319 | 1506 ft | 171 kts | 339° |
| 2026-05-03 21:28 | 34.21237 | -77.87786 | 1370 ft | 164 kts | 337° |
| 2026-05-03 21:28 | 34.22309 | -77.88273 | 1159 ft | 162 kts | 338° |
| 2026-05-03 21:28 | 34.23359 | -77.88737 | 835 ft | 159 kts | 338° |
| 2026-05-03 21:29 | 34.24362 | -77.89177 | 624 ft | 153 kts | 335° |
| 2026-05-03 21:29 | 34.25338 | -77.89650 | 352 ft | 148 kts | 336° |
| 2026-05-03 21:29 | 34.26293 | -77.90085 | 92 ft | 143 kts | 336° |
| 2026-05-03 21:29 | 34.27153 | -77.90495 | 31 ft | 120 kts | 344° |
| 2026-05-03 21:30 | 34.27825 | -77.90792 | 34 ft | 75 kts | 340° |
| 2026-05-03 21:30 | 34.28059 | -77.90960 | 37 ft | 23 kts | 260° |
| 2026-05-03 21:30 | 34.27958 | -77.91025 | 36 ft | 21 kts | 171° |
| 2026-05-03 21:30 | 34.27808 | -77.90992 | 35 ft | 23 kts | 168° |
| 2026-05-03 21:31 | 34.27645 | -77.90954 | 34 ft | 25 kts | 171° |
| 2026-05-03 21:31 | 34.27476 | -77.90917 | 34 ft | 23 kts | 164° |
| 2026-05-03 21:31 | 34.27329 | -77.90833 | 33 ft | 24 kts | 150° |
| 2026-05-03 21:31 | 34.27180 | -77.90733 | 32 ft | 24 kts | 150° |
| 2026-05-03 21:32 | 34.27046 | -77.90636 | 31 ft | 23 kts | 157° |
| 2026-05-03 21:32 | 34.26900 | -77.90568 | 30 ft | 19 kts | 159° |
| 2026-05-03 21:32 | 34.26811 | -77.90561 | 30 ft | 12 kts | 239° |
| 2026-05-03 21:32 | 34.26803 | -77.90666 | 30 ft | 13 kts | 269° |
| 2026-05-03 21:33 | 34.26797 | -77.90768 | 30 ft | 12 kts | 256° |
| 2026-05-03 21:33 | 34.26768 | -77.90850 | 30 ft | 9 kts | 244° |
| 2026-05-03 21:33 | 34.26747 | -77.90920 | 29 ft | 9 kts | 232° |
| 2026-05-03 21:33 | 34.26712 | -77.90938 | 29 ft | 2 kts | 183° |
| 2026-05-03 21:34 | 34.26709 | -77.90938 | 29 ft | 0 kts | 181° |